Ukiah, Oregon
Current Conditions -  °F | °C
As of 8:56 AM on Saturday 22 Nov 2014 (Local Time) from KMEH Reporting Station
Scattered Clouds Scattered Clouds  
Wind Chill: 36°   Ceiling: Unl
Heat Index: 36°   Visibility: 10mi
Dew Point: 33°   Wind: 3mph
Humidity: 89%   Direction: NA
Pressure: 29.75"   Gusts: NA
Location:  45.13°N, 118.93°W
Report Text: KMEH 221656Z AUTO VRB03KT 10SM FEW012 SCT017 02/01 A2975 RMK AO2 SLP087 T00220006
Loading
Personal Weather Stations






























Interactive Weather Map New forecast layout! Learn more

10-Day Weather Forecast

Advertisements
Track Severe Weather on mobile